createdAt,value
2017-04-30T00:00:13.906Z,6.08
2017-04-30T00:00:54.784Z,6.05
2017-04-30T00:01:35.670Z,6.01
2017-04-30T00:02:16.554Z,6.14
2017-04-30T00:02:57.436Z,6.04
2017-04-30T00:03:38.320Z,6.14
2017-04-30T00:04:19.187Z,6.09
2017-04-30T00:05:00.068Z,6.02
2017-04-30T00:05:40.947Z,6.07
2017-04-30T00:06:21.832Z,6.08
2017-04-30T00:07:02.733Z,5.87
2017-04-30T00:07:43.644Z,5.94
2017-04-30T00:08:24.530Z,6.04
2017-04-30T00:09:05.408Z,6.07
2017-04-30T00:09:46.303Z,5.94
2017-04-30T00:10:27.188Z,5.98
2017-04-30T00:11:08.068Z,6.02
2017-04-30T00:11:48.946Z,5.94
2017-04-30T00:12:29.827Z,6.02
2017-04-30T00:13:10.690Z,6.05
2017-04-30T00:13:51.561Z,5.99
2017-04-30T00:14:32.448Z,6.07
2017-04-30T00:15:13.353Z,6.07
2017-04-30T00:15:54.208Z,6.02
2017-04-30T00:16:35.091Z,6.14
2017-04-30T00:17:15.977Z,6.07
2017-04-30T00:17:56.867Z,6.07
2017-04-30T00:18:37.741Z,6.09
2017-04-30T00:19:18.616Z,6.01
2017-04-30T00:19:59.512Z,6.05
2017-04-30T00:20:40.401Z,5.94
2017-04-30T00:21:21.287Z,5.93
2017-04-30T00:22:02.171Z,5.97
2017-04-30T00:22:43.047Z,6.07
2017-04-30T00:23:23.930Z,6.05
2017-04-30T00:24:04.804Z,6.02
2017-04-30T00:24:45.687Z,6.01
2017-04-30T00:25:26.570Z,6.01
2017-04-30T00:26:07.451Z,6.04
2017-04-30T00:26:48.303Z,5.91
2017-04-30T00:27:29.190Z,6.01
2017-04-30T00:28:10.058Z,6.04
2017-04-30T00:28:50.953Z,6.01
2017-04-30T00:29:31.831Z,6.04
2017-04-30T00:30:12.704Z,5.9
2017-04-30T00:30:53.584Z,5.9
2017-04-30T00:31:34.444Z,5.93
2017-04-30T00:32:15.329Z,6.08
2017-04-30T00:32:56.213Z,6.04
2017-04-30T00:33:37.097Z,5.93
2017-04-30T00:34:17.981Z,5.87
2017-04-30T00:34:58.853Z,5.89
2017-04-30T00:35:39.725Z,6.01
2017-04-30T00:36:20.610Z,6.01
2017-04-30T00:37:01.501Z,5.9
2017-04-30T00:37:42.379Z,5.9
2017-04-30T00:38:23.249Z,5.83
2017-04-30T00:39:04.128Z,5.83
2017-04-30T00:39:45.008Z,5.87
2017-04-30T00:40:25.886Z,5.89
2017-04-30T00:41:06.761Z,5.9
2017-04-30T00:41:47.636Z,5.86
2017-04-30T00:42:28.527Z,5.93
2017-04-30T00:43:09.411Z,6.08
2017-04-30T00:43:50.294Z,6.04
2017-04-30T00:44:31.164Z,6.09
2017-04-30T00:45:12.039Z,5.98
2017-04-30T00:45:52.934Z,6.02
2017-04-30T00:46:33.811Z,5.97
2017-04-30T00:47:14.686Z,6.02
2017-04-30T00:47:55.567Z,5.97
2017-04-30T00:48:36.433Z,5.93
2017-04-30T00:49:17.342Z,5.89
2017-04-30T00:49:58.225Z,5.93
2017-04-30T00:50:39.069Z,5.94
2017-04-30T00:51:19.935Z,5.94
2017-04-30T00:52:00.808Z,5.84
2017-04-30T00:52:41.699Z,5.87
2017-04-30T00:53:22.576Z,5.87
2017-04-30T00:54:03.468Z,5.8
2017-04-30T00:54:44.324Z,5.86
2017-04-30T00:55:25.188Z,5.87
2017-04-30T00:56:06.052Z,6.01
2017-04-30T00:56:46.924Z,5.97
2017-04-30T00:57:27.802Z,5.89
2017-04-30T00:58:08.717Z,5.99
2017-04-30T00:58:49.571Z,5.93
2017-04-30T00:59:30.427Z,5.83
2017-04-30T01:00:11.285Z,5.87
2017-04-30T01:00:52.150Z,5.91
2017-04-30T01:01:33.027Z,5.86
2017-04-30T01:02:13.876Z,5.83
2017-04-30T01:02:54.758Z,5.69
2017-04-30T01:03:35.675Z,5.69
2017-04-30T01:04:16.544Z,5.61
2017-04-30T01:04:57.422Z,5.57
2017-04-30T01:05:38.296Z,5.51
2017-04-30T01:06:19.234Z,5.5
2017-04-30T01:07:00.114Z,5.48
2017-04-30T01:07:40.996Z,5.51
2017-04-30T01:08:21.869Z,5.56
2017-04-30T01:09:02.746Z,5.65
2017-04-30T01:09:43.609Z,5.64
2017-04-30T01:10:24.495Z,5.57
2017-04-30T01:11:05.366Z,5.57
2017-04-30T01:11:46.870Z,5.47
2017-04-30T01:12:27.759Z,5.48
2017-04-30T01:13:08.614Z,5.43
2017-04-30T01:13:49.482Z,5.44
2017-04-30T01:14:30.363Z,5.57
2017-04-30T01:15:11.244Z,5.59
2017-04-30T01:15:52.119Z,5.57
2017-04-30T01:16:33.011Z,5.66
2017-04-30T01:17:13.881Z,5.66
2017-04-30T01:17:54.756Z,5.56
2017-04-30T01:18:35.630Z,5.56
2017-04-30T01:19:16.508Z,5.56
2017-04-30T01:19:57.391Z,5.54
2017-04-30T01:20:38.254Z,5.53
2017-04-30T01:21:19.132Z,5.46
2017-04-30T01:22:00.016Z,5.56
2017-04-30T01:22:40.884Z,5.59
2017-04-30T01:23:21.786Z,5.59
2017-04-30T01:24:02.659Z,5.44
2017-04-30T01:24:43.529Z,5.46
2017-04-30T01:25:24.410Z,5.51
2017-04-30T01:26:05.294Z,5.57
2017-04-30T01:26:46.169Z,5.62
2017-04-30T01:27:27.044Z,5.51
2017-04-30T01:28:07.905Z,5.59
2017-04-30T01:28:48.796Z,5.48
2017-04-30T01:29:29.681Z,5.5
2017-04-30T01:30:10.557Z,5.46
2017-04-30T01:30:51.435Z,5.5
2017-04-30T01:31:32.297Z,5.56
2017-04-30T01:32:13.176Z,5.48
2017-04-30T01:32:54.061Z,5.59
2017-04-30T01:33:34.967Z,5.46
2017-04-30T01:34:15.825Z,5.54
2017-04-30T01:34:56.713Z,5.57
2017-04-30T01:35:37.597Z,5.61
2017-04-30T01:36:18.506Z,5.53
2017-04-30T01:36:59.343Z,5.54
2017-04-30T01:37:40.217Z,5.59
2017-04-30T01:38:21.093Z,5.48
2017-04-30T01:39:01.977Z,5.51
2017-04-30T01:39:42.846Z,5.43
2017-04-30T01:40:23.747Z,5.41
2017-04-30T01:41:04.599Z,5.44
2017-04-30T01:41:45.478Z,5.41
2017-04-30T01:42:26.361Z,5.41
2017-04-30T01:43:07.249Z,5.38
2017-04-30T01:43:48.125Z,5.41
2017-04-30T01:44:28.986Z,5.32
2017-04-30T01:45:09.868Z,5.35
2017-04-30T01:45:50.750Z,5.47
2017-04-30T01:46:31.641Z,5.36
2017-04-30T01:47:12.515Z,5.39
2017-04-30T01:47:53.387Z,5.5
2017-04-30T01:48:34.269Z,5.46
2017-04-30T01:49:15.158Z,5.39
2017-04-30T01:49:56.033Z,5.36
2017-04-30T01:50:36.903Z,5.46
2017-04-30T01:51:17.778Z,5.35
2017-04-30T01:51:58.655Z,5.41
2017-04-30T01:52:39.522Z,5.41
2017-04-30T01:53:20.401Z,5.43
2017-04-30T01:54:01.294Z,5.46
2017-04-30T01:54:42.163Z,5.36
2017-04-30T01:55:23.041Z,5.43
2017-04-30T01:56:03.903Z,5.41
2017-04-30T01:56:44.781Z,5.36
2017-04-30T01:57:25.668Z,5.33
2017-04-30T01:58:06.544Z,5.29
2017-04-30T01:58:47.439Z,5.29
2017-04-30T01:59:28.335Z,5.44
2017-04-30T02:00:09.208Z,5.26
2017-04-30T02:00:50.109Z,5.29
2017-04-30T02:01:30.963Z,5.23
2017-04-30T02:02:11.835Z,5.21
2017-04-30T02:02:52.716Z,5.23
2017-04-30T02:03:33.599Z,5.2
2017-04-30T02:04:14.474Z,5.23
2017-04-30T02:04:55.355Z,5.25
2017-04-30T02:05:36.235Z,5.25
2017-04-30T02:06:17.103Z,5.21
2017-04-30T02:06:57.972Z,5.15
2017-04-30T02:07:38.846Z,5.12
2017-04-30T02:08:19.719Z,5.1
2017-04-30T02:09:00.585Z,5.18
2017-04-30T02:09:41.449Z,5.15
2017-04-30T02:10:22.314Z,5.21
2017-04-30T02:11:03.194Z,5.23
2017-04-30T02:11:44.089Z,5.18
2017-04-30T02:12:24.967Z,5.07
2017-04-30T02:13:05.825Z,5.1
2017-04-30T02:13:46.698Z,5.08
2017-04-30T02:14:27.570Z,5.05
2017-04-30T02:15:08.463Z,5.04
2017-04-30T02:15:49.342Z,5
2017-04-30T02:16:30.227Z,5.02
2017-04-30T02:17:11.098Z,4.96
2017-04-30T02:17:51.976Z,4.9
2017-04-30T02:18:32.865Z,4.96
2017-04-30T02:19:13.736Z,4.86
2017-04-30T02:19:54.616Z,4.87
2017-04-30T02:20:35.498Z,4.87
2017-04-30T02:21:16.390Z,5.05
2017-04-30T02:21:57.281Z,4.9
2017-04-30T02:22:38.149Z,4.87
2017-04-30T02:23:19.020Z,4.93
2017-04-30T02:23:59.905Z,4.89
2017-04-30T02:24:40.788Z,4.89
2017-04-30T02:25:21.671Z,5
2017-04-30T02:26:02.533Z,4.94
2017-04-30T02:26:43.414Z,4.82
2017-04-30T02:27:24.291Z,4.97
2017-04-30T02:28:05.181Z,5
2017-04-30T02:28:46.063Z,4.73
2017-04-30T02:29:26.966Z,4.68
2017-04-30T02:30:07.863Z,4.78
2017-04-30T02:30:48.730Z,4.75
2017-04-30T02:31:29.615Z,4.78
2017-04-30T02:32:10.501Z,4.92
2017-04-30T02:32:51.395Z,4.89
2017-04-30T02:33:32.293Z,4.9
2017-04-30T02:34:13.185Z,4.92
2017-04-30T02:34:54.061Z,4.87
2017-04-30T02:35:34.935Z,4.8
2017-04-30T02:36:15.809Z,4.77
2017-04-30T02:36:56.677Z,4.77
2017-04-30T02:37:37.556Z,4.92
2017-04-30T02:38:18.441Z,4.9
2017-04-30T02:38:59.337Z,4.89
2017-04-30T02:39:40.196Z,4.96
2017-04-30T02:40:21.065Z,4.89
2017-04-30T02:41:01.939Z,4.74
2017-04-30T02:41:42.830Z,4.75
2017-04-30T02:42:23.755Z,4.8
2017-04-30T02:43:04.699Z,4.9
2017-04-30T02:43:47.328Z,4.87
2017-04-30T02:44:29.246Z,4.9
2017-04-30T02:45:10.117Z,4.9
2017-04-30T02:45:50.980Z,4.78
2017-04-30T02:46:32.789Z,4.84
2017-04-30T02:47:13.724Z,4.74
2017-04-30T02:47:54.626Z,4.77
2017-04-30T02:48:35.524Z,4.78
2017-04-30T02:49:16.389Z,4.68
2017-04-30T02:49:57.286Z,4.84
2017-04-30T02:50:38.152Z,4.92
2017-04-30T02:51:19.041Z,4.9
2017-04-30T02:51:59.921Z,4.92
2017-04-30T02:52:40.793Z,4.99
2017-04-30T02:53:21.660Z,4.89
2017-04-30T02:54:02.531Z,4.84
2017-04-30T02:54:43.429Z,4.74
2017-04-30T02:55:24.310Z,4.73
2017-04-30T02:56:05.196Z,4.87
2017-04-30T02:56:46.071Z,4.8
2017-04-30T02:57:26.954Z,4.82
2017-04-30T02:58:07.835Z,4.78
2017-04-30T02:58:48.721Z,4.74
2017-04-30T02:59:29.576Z,4.74
2017-04-30T03:00:10.463Z,4.84
2017-04-30T03:00:51.315Z,4.78
2017-04-30T03:01:32.209Z,4.73
2017-04-30T03:02:13.098Z,4.8
2017-04-30T03:02:53.972Z,4.87
2017-04-30T03:03:34.827Z,4.89
2017-04-30T03:04:15.679Z,4.86
2017-04-30T03:04:56.563Z,4.74
2017-04-30T03:05:37.439Z,4.77
2017-04-30T03:06:18.328Z,4.74
2017-04-30T03:06:59.206Z,4.77
2017-04-30T03:07:40.086Z,4.89
2017-04-30T03:08:20.955Z,4.77
2017-04-30T03:09:01.817Z,4.82
2017-04-30T03:09:42.681Z,4.73
2017-04-30T03:10:23.555Z,4.77
2017-04-30T03:11:04.442Z,4.75
2017-04-30T03:11:45.308Z,4.82
2017-04-30T03:12:26.191Z,4.78
2017-04-30T03:13:07.054Z,4.68
2017-04-30T03:13:47.928Z,4.75
2017-04-30T03:14:28.789Z,4.77
2017-04-30T03:15:09.654Z,4.8
2017-04-30T03:15:50.518Z,4.8
2017-04-30T03:16:31.398Z,4.8
2017-04-30T03:17:12.286Z,4.82
2017-04-30T03:17:53.159Z,4.71
2017-04-30T03:18:34.043Z,4.62
2017-04-30T03:19:14.914Z,4.52
2017-04-30T03:19:55.792Z,4.52
2017-04-30T03:20:36.674Z,4.49
2017-04-30T03:21:17.551Z,4.4
2017-04-30T03:21:58.432Z,4.53
2017-04-30T03:22:39.314Z,4.5
2017-04-30T03:23:20.202Z,4.48
2017-04-30T03:24:01.083Z,4.63
2017-04-30T03:24:41.967Z,4.49
2017-04-30T03:25:22.854Z,4.5
2017-04-30T03:26:03.742Z,4.49
2017-04-30T03:26:44.664Z,4.48
2017-04-30T03:27:25.549Z,4.55
2017-04-30T03:28:06.428Z,4.49
2017-04-30T03:28:47.308Z,4.4
2017-04-30T03:29:28.187Z,4.42
2017-04-30T03:30:09.073Z,4.37
2017-04-30T03:30:49.943Z,4.41
2017-04-30T03:31:30.825Z,4.5
2017-04-30T03:32:11.700Z,4.56
2017-04-30T03:32:52.578Z,4.52
2017-04-30T03:33:33.460Z,4.49
2017-04-30T03:34:14.382Z,4.48
2017-04-30T03:34:55.213Z,4.44
2017-04-30T03:35:36.105Z,4.49
2017-04-30T03:36:16.987Z,4.3
2017-04-30T03:36:57.863Z,4.31
2017-04-30T03:37:38.744Z,4.3
2017-04-30T03:38:19.626Z,4.32
2017-04-30T03:39:00.495Z,4.31
2017-04-30T03:39:41.389Z,4.32
2017-04-30T03:40:22.258Z,4.35
2017-04-30T03:41:03.177Z,4.38
2017-04-30T03:41:44.051Z,4.3
2017-04-30T03:42:24.931Z,4.17
2017-04-30T03:43:05.806Z,4.16
2017-04-30T03:43:46.677Z,4.34
2017-04-30T03:44:27.554Z,4.17
2017-04-30T03:45:08.439Z,4.26
2017-04-30T03:45:49.303Z,4.31
2017-04-30T03:46:30.194Z,4.37
2017-04-30T03:47:11.067Z,4.41
2017-04-30T03:47:51.946Z,4.41
2017-04-30T03:48:32.826Z,4.24
2017-04-30T03:49:13.713Z,4.28
2017-04-30T03:49:54.572Z,4.38
2017-04-30T03:50:35.452Z,4.28
2017-04-30T03:51:16.328Z,4.45
2017-04-30T03:51:57.215Z,4.45
2017-04-30T03:52:38.089Z,4.5
2017-04-30T03:53:18.976Z,4.5
2017-04-30T03:53:59.830Z,4.45
2017-04-30T03:54:40.764Z,4.5
2017-04-30T03:55:21.647Z,4.5
2017-04-30T03:56:02.518Z,4.5
2017-04-30T03:56:43.406Z,4.52
2017-04-30T03:57:24.270Z,4.53
2017-04-30T03:58:05.153Z,4.52
2017-04-30T03:58:46.032Z,4.55
2017-04-30T03:59:26.907Z,4.42
2017-04-30T04:00:07.782Z,4.5
2017-04-30T04:00:48.663Z,4.37
2017-04-30T04:01:29.547Z,4.42
2017-04-30T04:02:10.433Z,4.38
2017-04-30T04:02:51.315Z,4.5
2017-04-30T04:03:32.190Z,4.3
2017-04-30T04:04:13.070Z,4.34
2017-04-30T04:04:53.948Z,4.34
2017-04-30T04:05:34.825Z,4.3
2017-04-30T04:06:15.709Z,4.37
2017-04-30T04:06:56.591Z,4.3
2017-04-30T04:07:37.476Z,4.41
2017-04-30T04:08:18.355Z,4.52
2017-04-30T04:08:59.236Z,4.44
2017-04-30T04:09:40.111Z,4.5
2017-04-30T04:10:20.986Z,4.55
2017-04-30T04:11:01.869Z,4.48
2017-04-30T04:11:42.758Z,4.48
2017-04-30T04:12:23.629Z,4.38
2017-04-30T04:13:04.504Z,4.55
2017-04-30T04:13:45.381Z,4.49
2017-04-30T04:14:26.279Z,4.42
2017-04-30T04:15:07.158Z,4.45
2017-04-30T04:15:48.033Z,4.49
2017-04-30T04:16:28.915Z,4.42
2017-04-30T04:17:09.793Z,4.59
2017-04-30T04:17:50.670Z,4.55
2017-04-30T04:18:31.540Z,4.53
2017-04-30T04:19:12.417Z,4.56
2017-04-30T04:19:53.292Z,4.53
2017-04-30T04:20:34.215Z,4.53
2017-04-30T04:21:15.063Z,4.42
2017-04-30T04:21:55.925Z,4.49
2017-04-30T04:22:36.797Z,4.48
2017-04-30T04:23:17.705Z,4.53
2017-04-30T04:23:58.548Z,4.5
2017-04-30T04:24:39.429Z,4.52
2017-04-30T04:25:20.299Z,4.55
2017-04-30T04:26:02.044Z,4.52
2017-04-30T04:26:42.926Z,4.52
2017-04-30T04:27:23.807Z,4.44
2017-04-30T04:28:04.689Z,4.55
2017-04-30T04:28:45.565Z,4.49
2017-04-30T04:29:26.448Z,4.55
2017-04-30T04:30:07.322Z,4.55
2017-04-30T04:30:48.197Z,4.62
2017-04-30T04:31:29.070Z,4.58
2017-04-30T04:32:09.944Z,4.5
2017-04-30T04:32:50.836Z,4.58
2017-04-30T04:33:31.710Z,4.55
2017-04-30T04:34:12.590Z,4.56
2017-04-30T04:34:53.478Z,4.56
2017-04-30T04:35:35.257Z,4.59
2017-04-30T04:36:16.131Z,4.63
2017-04-30T04:36:56.994Z,4.52
2017-04-30T04:37:37.877Z,4.53
2017-04-30T04:38:18.759Z,4.58
2017-04-30T04:38:59.643Z,4.59
2017-04-30T04:39:40.524Z,4.55
2017-04-30T04:40:21.396Z,4.68
2017-04-30T04:41:02.267Z,4.73
2017-04-30T04:41:43.133Z,4.7
2017-04-30T04:42:24.017Z,4.67
2017-04-30T04:43:04.880Z,4.77
2017-04-30T04:43:45.748Z,4.78
2017-04-30T04:44:26.614Z,4.78
2017-04-30T04:45:07.485Z,4.73
2017-04-30T04:45:48.364Z,4.75
2017-04-30T04:46:29.235Z,4.73
2017-04-30T04:47:10.114Z,4.77
2017-04-30T04:47:50.996Z,4.74
2017-04-30T04:48:31.872Z,4.74
2017-04-30T04:49:12.751Z,4.74
2017-04-30T04:49:53.643Z,4.86
2017-04-30T04:50:34.538Z,4.84
2017-04-30T04:51:15.445Z,4.8
2017-04-30T04:51:56.295Z,4.84
2017-04-30T04:52:37.180Z,4.9
2017-04-30T04:53:18.097Z,4.9
2017-04-30T04:53:58.951Z,4.89
2017-04-30T04:54:39.832Z,4.94
2017-04-30T04:55:20.724Z,4.9
2017-04-30T04:56:01.599Z,4.96
2017-04-30T04:56:42.485Z,4.86
2017-04-30T04:57:23.345Z,4.82
2017-04-30T04:58:04.207Z,4.89
2017-04-30T04:58:45.095Z,4.84
2017-04-30T04:59:25.973Z,4.89
2017-04-30T05:00:06.844Z,4.86
2017-04-30T05:00:47.734Z,4.92
2017-04-30T05:01:28.610Z,4.97
2017-04-30T05:02:09.577Z,4.97
2017-04-30T05:02:50.453Z,4.94
2017-04-30T05:03:31.311Z,4.96
2017-04-30T05:04:12.176Z,4.89
2017-04-30T05:04:53.070Z,4.97
2017-04-30T05:05:33.962Z,5.04
2017-04-30T05:06:14.834Z,5.02
2017-04-30T05:06:55.715Z,5.05
2017-04-30T05:07:36.585Z,5.05
2017-04-30T05:08:17.462Z,5.04
2017-04-30T05:08:58.351Z,5.05
2017-04-30T05:09:39.226Z,5.14
2017-04-30T05:10:20.096Z,5.12
2017-04-30T05:11:00.974Z,5.18
2017-04-30T05:11:42.515Z,5.18
2017-04-30T05:12:23.393Z,5.15
2017-04-30T05:13:04.291Z,5.21
2017-04-30T05:13:45.212Z,5.2
2017-04-30T05:14:26.086Z,5.26
2017-04-30T05:15:06.966Z,5.25
2017-04-30T05:15:47.838Z,5.2
2017-04-30T05:16:28.746Z,5.23
2017-04-30T05:17:09.623Z,5.18
2017-04-30T05:17:50.519Z,5.21
2017-04-30T05:18:32.007Z,5.2
2017-04-30T05:19:12.770Z,5.21
2017-04-30T05:19:53.651Z,5.25
2017-04-30T05:20:34.523Z,5.23
2017-04-30T05:21:15.395Z,5.21
2017-04-30T05:21:56.272Z,5.25
2017-04-30T05:22:37.152Z,5.26
2017-04-30T05:23:18.031Z,5.32
2017-04-30T05:23:58.914Z,5.28
2017-04-30T05:24:39.798Z,5.3
2017-04-30T05:25:20.680Z,5.32
2017-04-30T05:26:01.563Z,5.29
2017-04-30T05:26:42.452Z,5.3
2017-04-30T05:27:23.322Z,5.35
2017-04-30T05:28:04.184Z,5.32
2017-04-30T05:28:45.057Z,5.38
2017-04-30T05:29:25.954Z,5.41
2017-04-30T05:30:06.831Z,5.43
2017-04-30T05:30:47.705Z,5.48
2017-04-30T05:31:28.580Z,5.5
2017-04-30T05:32:09.457Z,5.38
2017-04-30T05:32:50.339Z,5.43
2017-04-30T05:33:31.224Z,5.43
2017-04-30T05:34:12.097Z,5.5
2017-04-30T05:34:52.989Z,5.41
2017-04-30T05:35:33.896Z,5.54
2017-04-30T05:36:14.782Z,5.62
2017-04-30T05:36:55.649Z,5.57
2017-04-30T05:37:36.522Z,5.56
2017-04-30T05:38:17.380Z,5.54
2017-04-30T05:38:58.251Z,5.57
2017-04-30T05:39:39.128Z,5.56
2017-04-30T05:40:20.010Z,5.41
2017-04-30T05:41:00.891Z,5.53
2017-04-30T05:41:41.769Z,5.48
2017-04-30T05:42:22.648Z,5.47
2017-04-30T05:43:03.529Z,5.57
2017-04-30T05:45:02.052Z,5.61
2017-04-30T05:45:42.946Z,5.54
2017-04-30T05:46:24.251Z,5.62
2017-04-30T05:47:05.081Z,5.62
2017-04-30T05:47:45.961Z,5.68
2017-04-30T05:48:26.841Z,5.69
2017-04-30T05:49:07.736Z,5.72
2017-04-30T05:49:48.611Z,5.73
2017-04-30T05:50:29.508Z,5.69
2017-04-30T05:51:10.376Z,5.71
2017-04-30T05:51:51.255Z,5.72
2017-04-30T05:52:32.115Z,5.72
2017-04-30T05:53:12.994Z,5.76
2017-04-30T05:53:53.868Z,5.83
2017-04-30T05:54:34.729Z,5.82
2017-04-30T05:55:15.633Z,5.82
2017-04-30T05:55:56.511Z,5.89
2017-04-30T05:56:37.381Z,5.89
2017-04-30T05:57:18.262Z,5.83
2017-04-30T05:57:59.156Z,5.87
2017-04-30T05:58:40.071Z,5.84
2017-04-30T05:59:20.950Z,5.89
2017-04-30T06:00:01.827Z,5.87
2017-04-30T06:00:42.686Z,5.91
2017-04-30T06:01:23.567Z,5.9
2017-04-30T06:02:04.435Z,6.04
2017-04-30T06:02:45.318Z,5.98
2017-04-30T06:03:26.188Z,6.07
2017-04-30T06:04:07.061Z,5.93
2017-04-30T06:04:47.943Z,6.09
2017-04-30T06:05:28.837Z,6.05
2017-04-30T06:06:09.711Z,6.08
2017-04-30T06:06:50.587Z,6.08
2017-04-30T06:07:31.483Z,6.17
2017-04-30T06:08:12.348Z,6.12
2017-04-30T06:08:53.220Z,6.24
2017-04-30T06:09:34.086Z,6.22
2017-04-30T06:10:15.000Z,6.14
2017-04-30T06:10:55.872Z,6.16
2017-04-30T06:11:36.750Z,6.22
2017-04-30T06:12:17.623Z,6.33
2017-04-30T06:12:58.514Z,6.26
2017-04-30T06:13:39.352Z,6.31
2017-04-30T06:14:20.247Z,6.3
2017-04-30T06:15:01.122Z,6.31
2017-04-30T06:15:41.986Z,6.33
2017-04-30T06:16:22.877Z,6.33
2017-04-30T06:17:03.823Z,6.33
2017-04-30T06:17:45.899Z,6.49
2017-04-30T06:18:26.775Z,6.39
2017-04-30T06:19:07.651Z,6.38
2017-04-30T06:19:48.532Z,6.36
2017-04-30T06:20:29.411Z,6.52
2017-04-30T06:21:10.294Z,6.54
2017-04-30T06:21:51.179Z,6.56
2017-04-30T06:22:32.075Z,6.57
2017-04-30T06:23:12.951Z,6.62
2017-04-30T06:23:53.828Z,6.63
2017-04-30T06:24:34.703Z,6.64
2017-04-30T06:25:15.575Z,6.67
2017-04-30T06:25:56.447Z,6.62
2017-04-30T06:26:37.333Z,6.77
2017-04-30T06:27:18.214Z,6.67
2017-04-30T06:27:59.126Z,6.7
2017-04-30T06:28:39.965Z,6.7
2017-04-30T06:29:20.839Z,6.69
2017-04-30T06:30:01.733Z,6.7
2017-04-30T06:30:42.643Z,6.72
2017-04-30T06:31:23.532Z,6.81
2017-04-30T06:32:04.415Z,6.81
2017-04-30T06:32:45.278Z,6.84
2017-04-30T06:33:26.155Z,6.84
2017-04-30T06:34:07.039Z,6.93
2017-04-30T06:34:47.915Z,6.88
2017-04-30T06:35:28.808Z,6.84
2017-04-30T06:36:09.695Z,7
2017-04-30T06:36:50.568Z,7.02
2017-04-30T06:37:31.423Z,7.07
2017-04-30T06:38:12.287Z,7.2
2017-04-30T06:38:53.159Z,7.13
2017-04-30T06:39:34.058Z,7.21
2017-04-30T06:40:14.926Z,7.17
2017-04-30T06:40:55.794Z,7.24
2017-04-30T06:41:36.669Z,7.32
2017-04-30T06:42:17.549Z,7.36
2017-04-30T06:42:58.422Z,7.5
2017-04-30T06:43:39.306Z,7.67
2017-04-30T06:44:20.189Z,7.79
2017-04-30T06:45:01.068Z,7.97
2017-04-30T06:45:42.645Z,8.36
2017-04-30T06:46:23.527Z,8.73
2017-04-30T06:47:04.405Z,8.78
2017-04-30T06:47:45.291Z,9.1
2017-04-30T06:48:26.164Z,9.26
2017-04-30T06:49:07.084Z,9.39
2017-04-30T06:49:47.943Z,9.41
2017-04-30T06:50:28.820Z,9.54
2017-04-30T06:51:09.699Z,9.62
2017-04-30T06:51:50.583Z,9.65
2017-04-30T06:52:31.471Z,9.91
2017-04-30T06:53:12.422Z,10.13
2017-04-30T06:53:53.325Z,10.13
2017-04-30T06:54:34.203Z,10.13
2017-04-30T06:55:15.090Z,10.31
2017-04-30T06:55:55.965Z,10.42
2017-04-30T06:56:36.855Z,10.49
2017-04-30T06:57:17.735Z,10.57
2017-04-30T06:57:58.614Z,10.63
2017-04-30T06:58:39.494Z,10.72
2017-04-30T06:59:20.385Z,10.72
2017-04-30T07:00:01.265Z,10.72
2017-04-30T07:00:42.152Z,10.87
2017-04-30T07:01:23.044Z,11.12
2017-04-30T07:02:03.930Z,11.23
2017-04-30T07:05:45.113Z,11.78
2017-04-30T07:06:25.962Z,12.03
2017-04-30T07:07:06.873Z,12.03
2017-04-30T07:07:47.782Z,11.94
2017-04-30T07:08:28.665Z,12.21
2017-04-30T07:09:09.556Z,12.45
2017-04-30T07:09:50.466Z,12.42
2017-04-30T07:10:31.358Z,12.15
2017-04-30T07:11:12.260Z,11.94
2017-04-30T07:11:53.159Z,12.15
2017-04-30T07:12:34.058Z,12.09
2017-04-30T07:13:14.960Z,12.13
2017-04-30T07:14:48.299Z,11.84
2017-04-30T07:15:29.180Z,11.86
2017-04-30T07:16:10.067Z,12.03
2017-04-30T07:16:50.970Z,12.03
2017-04-30T07:17:31.877Z,11.84
2017-04-30T07:19:05.155Z,12.22
2017-04-30T07:19:46.035Z,12.21
2017-04-30T07:20:26.913Z,12.28
2017-04-30T07:21:07.828Z,12.2
2017-04-30T07:21:48.727Z,12.22
2017-04-30T07:22:29.619Z,12.09
2017-04-30T07:23:10.529Z,11.91
2017-04-30T07:23:51.394Z,11.84
2017-04-30T07:24:32.295Z,12.03
2017-04-30T07:25:13.195Z,12
2017-04-30T07:25:54.078Z,11.84
2017-04-30T07:26:34.984Z,11.78
2017-04-30T07:27:15.864Z,11.94
2017-04-30T07:27:56.760Z,11.68
2017-04-30T07:28:37.650Z,11.66
2017-04-30T07:29:18.564Z,11.6
2017-04-30T07:29:59.415Z,11.52
2017-04-30T07:30:40.289Z,11.52
2017-04-30T07:31:21.186Z,11.52
2017-04-30T07:32:02.070Z,11.55
2017-04-30T07:32:42.954Z,11.6
2017-04-30T07:33:23.849Z,11.6
2017-04-30T07:34:04.765Z,11.86
2017-04-30T07:34:45.636Z,11.87
2017-04-30T07:35:26.544Z,11.7
2017-04-30T07:36:07.451Z,11.48
2017-04-30T07:36:48.346Z,11.43
2017-04-30T07:37:29.228Z,11.29
2017-04-30T07:38:10.754Z,11.54
2017-04-30T07:38:51.656Z,11.55
2017-04-30T07:39:32.502Z,11.54
2017-04-30T07:40:13.386Z,11.6
2017-04-30T07:40:54.285Z,11.5
2017-04-30T07:41:35.176Z,11.6
2017-04-30T07:42:16.197Z,11.8
2017-04-30T07:42:57.095Z,11.95
2017-04-30T07:43:37.966Z,11.77
2017-04-30T07:44:18.852Z,11.84
2017-04-30T07:44:59.744Z,12.03
2017-04-30T07:45:40.640Z,12.12
2017-04-30T07:46:24.361Z,12.13
2017-04-30T07:47:05.359Z,12.17
2017-04-30T07:47:46.221Z,12.15
2017-04-30T07:49:34.478Z,12.72
2017-04-30T07:50:15.434Z,12.37
2017-04-30T07:51:49.588Z,12.29
2017-04-30T07:52:30.476Z,12.36
2017-04-30T07:53:11.367Z,12.32
2017-04-30T07:53:52.252Z,12.39
2017-04-30T07:54:33.149Z,12.07
2017-04-30T07:55:17.636Z,12.12
2017-04-30T07:56:00.499Z,12.06
2017-04-30T07:56:43.397Z,12.04
2017-04-30T07:57:24.269Z,12.24
2017-04-30T07:58:05.155Z,12.12
2017-04-30T07:58:46.052Z,12.06
2017-04-30T07:59:28.518Z,12.22
2017-04-30T08:00:09.418Z,12.55
2017-04-30T08:00:50.302Z,12.54
2017-04-30T08:01:31.186Z,12.6
2017-04-30T08:02:12.095Z,12.61
2017-04-30T08:02:53.005Z,12.68
2017-04-30T08:03:34.047Z,12.68
2017-04-30T08:04:14.946Z,12.68
2017-04-30T08:04:55.836Z,12.8
2017-04-30T08:05:36.725Z,12.61
2017-04-30T08:06:17.628Z,12.68
2017-04-30T08:06:58.526Z,12.7
2017-04-30T08:07:39.424Z,12.7
2017-04-30T08:08:20.875Z,12.82
2017-04-30T08:09:07.436Z,12.82
2017-04-30T08:09:48.350Z,12.85
2017-04-30T08:10:29.215Z,12.9
2017-04-30T08:11:12.873Z,12.93
2017-04-30T08:11:55.519Z,12.95
2017-04-30T08:12:41.017Z,13.13
2017-04-30T08:13:29.528Z,13.31
2017-04-30T08:14:10.417Z,13.16
2017-04-30T08:14:53.021Z,12.85
2017-04-30T08:15:36.873Z,12.95
2017-04-30T08:16:30.150Z,13.05
2017-04-30T08:17:11.046Z,13.18
2017-04-30T08:17:51.938Z,13.39
2017-04-30T08:18:32.848Z,13.35
2017-04-30T08:19:13.722Z,13.23
2017-04-30T08:19:54.615Z,13.28
2017-04-30T08:20:35.496Z,13.23
2017-04-30T08:21:16.393Z,13.35
2017-04-30T08:21:59.147Z,13.31
2017-04-30T08:22:40.048Z,13.28
2017-04-30T08:23:20.952Z,13.03
2017-04-30T08:24:01.840Z,12.93
2017-04-30T08:24:42.740Z,13.03
2017-04-30T08:25:23.631Z,13.31
2017-04-30T08:26:04.541Z,13.15
2017-04-30T08:26:45.429Z,13.33
2017-04-30T08:27:27.878Z,13.46
2017-04-30T08:28:08.784Z,13.67
2017-04-30T08:28:49.669Z,13.53
2017-04-30T08:29:30.554Z,13.5
2017-04-30T08:30:11.467Z,13.56
2017-04-30T08:30:52.364Z,13.53
2017-04-30T08:31:35.159Z,13.52
2017-04-30T08:32:16.045Z,13.63
2017-04-30T08:32:56.965Z,13.56
2017-04-30T08:33:37.838Z,13.46
2017-04-30T08:34:18.739Z,13.71
2017-04-30T08:34:59.639Z,13.62
2017-04-30T08:36:47.914Z,14.23
2017-04-30T08:37:28.785Z,14.48
2017-04-30T08:38:09.678Z,14.29
2017-04-30T08:38:50.674Z,14.3
2017-04-30T08:39:31.510Z,14.32
2017-04-30T08:42:47.762Z,14.84
2017-04-30T08:43:28.662Z,14.53
2017-04-30T08:44:09.625Z,14.3
2017-04-30T08:44:51.205Z,14.35
2017-04-30T08:45:32.090Z,14.58
2017-04-30T08:46:13.026Z,14.47
2017-04-30T08:46:53.910Z,14.59
2017-04-30T08:47:34.833Z,14.7
2017-04-30T08:48:15.730Z,15.24
2017-04-30T08:48:56.618Z,15.58
2017-04-30T08:49:37.549Z,15.91
2017-04-30T08:50:18.884Z,15.76
2017-04-30T08:50:59.765Z,15.09
2017-04-30T08:51:40.654Z,15.46
2017-04-30T08:52:21.549Z,15.58
2017-04-30T08:53:02.446Z,15.61
2017-04-30T08:53:43.344Z,15.92
2017-04-30T08:54:24.257Z,16.23
2017-04-30T08:55:05.234Z,15.92
2017-04-30T08:55:46.925Z,15.8
2017-04-30T08:56:27.837Z,15.9
2017-04-30T08:57:08.734Z,15.7
2017-04-30T08:57:49.636Z,15.95
2017-04-30T08:58:30.524Z,15.97
2017-04-30T08:59:11.463Z,15.92
2017-04-30T08:59:52.360Z,16.05
2017-04-30T09:00:33.257Z,15.86
2017-04-30T09:01:14.162Z,15.68
2017-04-30T09:01:55.053Z,15.76
2017-04-30T09:02:36.009Z,15.54
2017-04-30T09:03:16.939Z,15.8
2017-04-30T09:03:57.797Z,16.35
2017-04-30T09:04:38.691Z,16.2
2017-04-30T09:05:19.582Z,16
2017-04-30T09:06:00.482Z,15.54
2017-04-30T09:06:41.411Z,15.07
2017-04-30T09:07:22.320Z,14.79
2017-04-30T09:08:03.234Z,14.66
2017-04-30T09:08:44.156Z,14.54
2017-04-30T09:09:25.057Z,14.78
2017-04-30T09:10:05.947Z,14.68
2017-04-30T09:10:46.841Z,14.5
2017-04-30T09:11:27.733Z,14.35
2017-04-30T09:12:08.620Z,14.36
2017-04-30T09:12:49.536Z,14.43
2017-04-30T09:13:30.426Z,14.37
2017-04-30T09:14:11.329Z,14.51
2017-04-30T09:14:52.224Z,14.36